Time;durP1;ratioP1;P1;durP2;ratioP2;P2;SDS_P1;SDS_P2;PMS_P1;PMS_P2;Temp;Humidity;BMP_temperature;BMP_pressure;BME280_temperature;BME280_humidity;BME280_pressure;Samples;Min_cycle;Max_cycle;Signal;HPM_P1;HPM_P2
2021/12/30 00:01:12;;;;;;;48.63;8.88;;;;;;;9.30;100.00;100855.88;6250504;22;20010;-92
2021/12/30 00:03:46;;;;;;;44.95;9.07;;;;;;;9.58;100.00;100904.44;6259296;22;20091;-92
2021/12/30 00:06:21;;;;;;;42.45;9.18;;;;;;;9.74;100.00;100926.75;6269709;22;20003;-92
2021/12/30 00:08:48;;;;;;;47.05;10.07;;;;;;;9.35;100.00;100857.97;6269707;22;20000;-92
2021/12/30 00:11:14;;;;;;;51.08;10.88;;;;;;;9.41;100.00;100881.53;6250629;22;20031;-93
2021/12/30 00:13:45;;;;;;;47.60;10.90;;;;;;;9.45;100.00;100870.06;6250542;22;20004;-92
2021/12/30 00:16:15;;;;;;;49.88;10.50;;;;;;;9.86;100.00;100945.94;6249499;22;20004;-91
2021/12/30 00:18:42;;;;;;;41.78;10.93;;;;;;;9.46;100.00;100869.03;6249347;22;20000;-90
2021/12/30 00:21:11;;;;;;;52.60;11.00;;;;;;;10.05;100.00;100966.78;6249121;22;20008;-90
2021/12/30 00:23:39;;;;;;;47.58;10.80;;;;;;;9.44;100.00;100865.69;6248984;22;20011;-91
2021/12/30 00:26:08;;;;;;;43.22;10.38;;;;;;;9.44;100.00;100872.97;6249662;22;20014;-91
2021/12/30 00:28:38;;;;;;;42.13;10.63;;;;;;;9.48;100.00;100872.34;6249168;22;20480;-93
2021/12/30 00:31:06;;;;;;;47.92;11.00;;;;;;;9.54;100.00;100869.88;6249898;22;20098;-92
2021/12/30 00:33:34;;;;;;;53.08;10.93;;;;;;;10.16;100.00;100976.16;6249794;22;20003;-92
2021/12/30 00:36:08;;;;;;;47.58;10.38;;;;;;;10.16;100.00;100976.16;6249728;22;20010;-92
2021/12/30 00:38:36;;;;;;;47.13;10.65;;;;;;;9.50;100.00;100874.84;6250106;22;19999;-92
2021/12/30 00:41:07;;;;;;;47.70;10.27;;;;;;;9.97;100.00;100950.72;6249724;22;20011;-92
2021/12/30 00:43:40;;;;;;;43.35;10.35;;;;;;;9.55;100.00;100874.22;6249927;22;20086;-92
2021/12/30 00:46:11;;;;;;;42.67;9.25;;;;;;;9.61;100.00;100886.94;6249328;22;20308;-92
2021/12/30 00:48:38;;;;;;;48.10;9.63;;;;;;;10.04;100.00;100958.84;6224906;22;20349;-93
2021/12/30 00:51:10;;;;;;;41.28;9.38;;;;;;;9.50;100.00;100865.91;6249462;22;20007;-92
2021/12/30 00:53:40;;;;;;;47.25;9.23;;;;;;;9.57;100.00;100867.56;6249704;22;20402;-92
2021/12/30 00:56:10;;;;;;;39.30;8.65;;;;;;;10.14;100.00;100967.38;6225614;22;20011;-92
2021/12/30 00:58:37;;;;;;;38.92;8.45;;;;;;;9.75;100.00;100907.56;6250842;22;20006;-91
2021/12/30 01:01:04;;;;;;;48.08;8.82;;;;;;;9.96;100.00;100935.50;6225929;22;20007;-92
2021/12/30 01:03:35;;;;;;;44.67;8.40;;;;;;;10.07;100.00;100947.59;6251615;22;20004;-92
2021/12/30 01:06:04;;;;;;;39.17;8.68;;;;;;;10.09;100.00;100950.94;6226255;22;20011;-92
2021/12/30 01:08:33;;;;;;;40.10;8.40;;;;;;;10.21;100.00;100959.28;6251448;22;20031;-92
2021/12/30 01:11:04;;;;;;;37.33;7.70;;;;;;;9.81;100.00;100903.19;6226689;22;20031;-92
2021/12/30 01:13:32;;;;;;;44.95;7.78;;;;;;;10.13;100.00;100949.47;6251853;22;20004;-91
2021/12/30 01:16:01;;;;;;;39.50;7.50;;;;;;;10.46;100.00;100989.31;6226829;22;20022;-92
2021/12/30 01:18:56;;;;;;;39.67;7.40;;;;;;;10.10;100.00;100941.78;6251129;22;20502;-92
2021/12/30 01:21:30;;;;;;;45.90;8.45;;;;;;;9.97;100.00;100912.78;6250924;22;20010;-91
2021/12/30 01:23:57;;;;;;;41.83;8.55;;;;;;;10.11;100.00;100935.28;6251893;22;20004;-92
2021/12/30 01:26:24;;;;;;;42.85;9.15;;;;;;;9.96;100.00;100909.22;6251578;22;20010;-92
2021/12/30 01:28:50;;;;;;;37.72;8.40;;;;;;;9.96;100.00;100890.25;6251408;22;20004;-92
2021/12/30 01:31:18;;;;;;;42.47;9.13;;;;;;;10.19;100.00;100926.94;6278033;22;20008;-92
2021/12/30 01:33:47;;;;;;;47.33;8.30;;;;;;;10.50;100.00;100991.38;6251653;22;19999;-91
2021/12/30 01:36:14;;;;;;;45.03;9.73;;;;;;;10.14;100.00;100915.88;6251295;22;20324;-91
2021/12/30 01:38:41;;;;;;;40.67;8.55;;;;;;;10.13;100.00;100908.81;6250878;22;20370;-92
2021/12/30 01:41:11;;;;;;;43.95;9.98;;;;;;;10.57;100.00;100972.38;6250731;22;20053;-91
2021/12/30 01:43:41;;;;;;;39.65;9.40;;;;;;;10.63;100.00;100979.69;6250971;22;20459;-91
2021/12/30 01:46:08;;;;;;;42.83;9.60;;;;;;;10.52;100.00;100954.00;6226106;22;20011;-92
2021/12/30 01:48:35;;;;;;;44.22;9.02;;;;;;;10.67;100.00;100966.50;6250725;22;20390;-91
2021/12/30 01:51:06;;;;;;;41.92;9.45;;;;;;;10.74;100.00;100961.88;6251185;22;20013;-92
2021/12/30 01:53:33;;;;;;;38.65;9.25;;;;;;;10.99;100.00;101005.44;6250846;22;20419;-92
2021/12/30 01:56:02;;;;;;;39.00;10.00;;;;;;;10.66;100.00;100945.88;6250982;22;20011;-92
2021/12/30 01:58:29;;;;;;;37.40;9.23;;;;;;;10.98;100.00;101000.22;6251358;22;20053;-92
2021/12/30 02:00:58;;;;;;;37.88;9.52;;;;;;;11.02;100.00;101002.28;6251159;22;20003;-92
2021/12/30 02:03:26;;;;;;;36.50;9.18;;;;;;;11.08;100.00;100992.47;6234021;22;20007;-92
2021/12/30 02:05:52;;;;;;;40.45;9.65;;;;;;;11.12;100.00;100998.31;6268326;22;20030;-91
2021/12/30 02:08:22;;;;;;;41.25;9.88;;;;;;;11.13;100.00;101002.69;6242838;22;20038;-92
2021/12/30 02:10:50;;;;;;;34.72;8.88;;;;;;;10.97;100.00;100976.84;6236406;22;20011;-92
2021/12/30 02:13:17;;;;;;;35.17;9.93;;;;;;;10.56;100.00;100900.16;6232196;22;20012;-93
2021/12/30 02:15:46;;;;;;;38.50;9.90;;;;;;;11.21;100.00;101016.03;6265551;22;20427;-91
2021/12/30 02:18:12;;;;;;;37.67;10.10;;;;;;;10.59;100.00;100905.16;6265800;22;19999;-91
2021/12/30 02:20:43;;;;;;;34.80;9.45;;;;;;;11.21;100.00;101011.41;6265073;22;20067;-92
2021/12/30 02:23:09;;;;;;;43.30;10.50;;;;;;;10.60;100.00;100914.97;6263267;22;20482;-91
2021/12/30 02:25:36;;;;;;;36.00;9.23;;;;;;;10.61;100.00;100921.22;6263489;22;20393;-92
2021/12/30 02:28:12;;;;;;;30.02;9.52;;;;;;;10.92;100.00;100974.78;6238630;22;20350;-92
2021/12/30 02:30:40;;;;;;;37.60;9.80;;;;;;;11.10;100.00;101000.41;6263401;22;20023;-91
2021/12/30 02:33:06;;;;;;;34.05;10.15;;;;;;;10.61;100.00;100907.66;6265640;22;20014;-92
2021/12/30 02:35:33;;;;;;;30.00;9.35;;;;;;;11.28;100.00;101008.69;6235769;22;20042;-91
2021/12/30 02:38:00;;;;;;;41.00;10.43;;;;;;;11.31;100.00;101015.53;6251463;22;20003;-92
2021/12/30 02:40:32;;;;;;;27.92;9.55;;;;;;;11.29;100.00;101017.66;6251639;22;20035;-90
2021/12/30 02:43:00;;;;;;;29.92;9.50;;;;;;;11.33;100.00;101017.00;6251849;22;20008;-90
2021/12/30 02:45:27;;;;;;;26.65;9.68;;;;;;;11.39;100.00;101012.59;6226402;22;20019;-92
2021/12/30 02:47:54;;;;;;;32.83;9.80;;;;;;;10.73;100.00;100914.09;6250790;22;20012;-92
2021/12/30 02:50:23;;;;;;;31.38;9.50;;;;;;;11.12;100.00;100971.97;6250845;22;20324;-92
2021/12/30 02:52:57;;;;;;;32.78;9.43;;;;;;;11.11;100.00;100974.91;6250902;22;20393;-92
2021/12/30 02:55:23;;;;;;;34.33;10.25;;;;;;;11.12;100.00;100974.69;6226182;22;20013;-91
2021/12/30 02:57:56;;;;;;;31.98;10.32;;;;;;;10.69;100.00;100918.28;6251012;22;20003;-91
2021/12/30 03:00:23;;;;;;;31.67;10.82;;;;;;;11.29;100.00;101010.31;6249904;22;19999;-92
2021/12/30 03:02:49;;;;;;;30.50;11.07;;;;;;;11.13;100.00;100999.97;6242092;22;20431;-91
2021/12/30 03:05:22;;;;;;;29.85;10.75;;;;;;;10.54;100.00;100902.28;6260526;22;20304;-91
2021/12/30 03:07:48;;;;;;;32.75;10.80;;;;;;;10.97;100.00;100977.69;6250614;22;20003;-91
2021/12/30 03:10:21;;;;;;;29.48;10.52;;;;;;;10.63;100.00;100929.97;6250801;22;20006;-91
2021/12/30 03:12:55;;;;;;;26.48;10.43;;;;;;;11.05;100.00;100995.63;6250326;22;20015;-92
2021/12/30 03:15:27;;;;;;;31.27;11.05;;;;;;;11.26;100.00;101026.25;6250100;22;20406;-92
2021/12/30 03:17:53;;;;;;;34.38;10.45;;;;;;;11.08;100.00;100995.19;6250695;22;20347;-91
2021/12/30 03:20:23;;;;;;;25.55;10.45;;;;;;;11.11;100.00;100993.91;6251065;22;20006;-92
2021/12/30 03:22:52;;;;;;;23.35;10.45;;;;;;;10.85;100.00;100950.38;6200811;22;20054;-92
2021/12/30 03:25:21;;;;;;;29.08;10.27;;;;;;;11.14;100.00;101001.63;6201028;22;20019;-91
2021/12/30 03:27:47;;;;;;;24.08;10.30;;;;;;;10.72;100.00;100939.56;6250654;22;20004;-92
2021/12/30 03:30:16;;;;;;;30.42;11.25;;;;;;;10.72;100.00;100947.72;6250497;22;20079;-92
2021/12/30 03:32:42;;;;;;;26.63;10.40;;;;;;;10.80;100.00;100947.47;6250352;22;20014;-92
2021/12/30 03:35:09;;;;;;;26.20;10.50;;;;;;;11.16;100.00;101000.38;6250789;22;20448;-92
2021/12/30 03:37:36;;;;;;;23.83;9.68;;;;;;;11.18;100.00;101000.97;6226080;22;20015;-91
2021/12/30 03:40:04;;;;;;;24.63;10.13;;;;;;;10.82;100.00;100945.38;6250545;22;20053;-91
2021/12/30 03:42:49;;;;;;;;;;;;;;;;;;;;;
2021/12/30 03:45:16;;;;;;;24.45;9.30;;;;;;;10.90;100.00;100938.88;6277981;22;20323;-92
2021/12/30 03:47:47;;;;;;;19.17;8.57;;;;;;;11.08;100.00;100965.31;6250861;22;20381;-92
2021/12/30 03:50:23;;;;;;;23.10;8.85;;;;;;;11.23;100.00;101000.34;6250038;22;20053;-93
2021/12/30 03:52:52;;;;;;;19.85;7.82;;;;;;;11.00;100.00;100954.72;6250709;22;20385;-93
2021/12/30 03:55:39;;;;;;;21.52;8.88;;;;;;;11.57;100.00;101028.16;6250857;22;20014;-92
2021/12/30 03:58:06;;;;;;;22.50;8.65;;;;;;;11.57;100.00;101041.75;6250360;22;20388;-93
2021/12/30 04:00:34;;;;;;;23.45;9.63;;;;;;;11.04;100.00;100943.19;6225886;22;20671;-92
2021/12/30 04:03:00;;;;;;;22.98;9.90;;;;;;;11.11;100.00;100955.91;6250099;22;20012;-92
2021/12/30 04:05:29;;;;;;;25.17;9.85;;;;;;;11.44;100.00;100999.22;6225560;22;20334;-92
2021/12/30 04:07:55;;;;;;;27.92;10.95;;;;;;;11.15;100.00;100957.16;6251098;22;20011;-92
2021/12/30 04:10:22;;;;;;;35.22;12.75;;;;;;;11.17;100.00;100955.84;6249906;22;20003;-91
2021/12/30 04:12:50;;;;;;;32.35;12.98;;;;;;;11.67;100.00;101024.97;6250219;22;20035;-91
2021/12/30 04:15:16;;;;;;;35.53;14.63;;;;;;;11.59;100.00;101002.44;6250021;22;20008;-92
2021/12/30 04:17:43;;;;;;;37.08;14.98;;;;;;;11.26;100.00;100953.72;6225014;22;20408;-91
2021/12/30 04:20:11;;;;;;;42.78;16.90;;;;;;;11.30;100.00;100963.09;6249990;22;20014;-91
2021/12/30 04:22:39;;;;;;;39.80;16.45;;;;;;;11.37;100.00;100982.09;6250125;22;20008;-91
2021/12/30 04:25:09;;;;;;;45.33;18.92;;;;;;;11.48;100.00;100992.25;6249697;22;20010;-91
2021/12/30 04:27:45;;;;;;;44.80;19.52;;;;;;;11.35;100.00;100970.59;6249794;22;20014;-92
2021/12/30 04:30:13;;;;;;;47.00;21.35;;;;;;;11.68;100.00;101013.91;6249619;22;20335;-92
2021/12/30 04:32:48;;;;;;;45.88;21.88;;;;;;;11.40;100.00;100973.50;6249846;22;20387;-92
2021/12/30 04:35:14;;;;;;;45.47;21.50;;;;;;;11.34;100.00;100966.25;6226515;22;20018;-92
2021/12/30 04:37:43;;;;;;;48.90;22.45;;;;;;;11.35;100.00;100970.59;6251449;22;20004;-92
2021/12/30 04:40:15;;;;;;;46.10;23.33;;;;;;;11.59;100.00;101010.59;6251547;22;20012;-92
2021/12/30 04:42:41;;;;;;;47.50;25.05;;;;;;;11.43;100.00;100972.22;6250515;22;20069;-92
2021/12/30 04:45:10;;;;;;;47.35;25.65;;;;;;;11.45;100.00;100984.56;6251486;22;20011;-92
2021/12/30 04:47:38;;;;;;;44.03;23.40;;;;;;;11.65;100.00;100999.88;6251386;22;20061;-91
2021/12/30 04:50:11;;;;;;;46.03;26.83;;;;;;;11.38;100.00;100964.72;6251100;22;20057;-92
2021/12/30 04:52:37;;;;;;;;;;;;;;;12.02;100.00;101074.34;6251934;22;20509;-92
2021/12/30 04:55:04;;;;;;;42.92;25.58;;;;;;;11.67;100.00;101005.97;6251910;22;20315;-92
2021/12/30 04:57:31;;;;;;;41.83;25.70;;;;;;;11.56;100.00;100981.16;6251485;22;20007;-91
2021/12/30 04:59:57;;;;;;;39.35;23.65;;;;;;;11.78;100.00;101018.88;6251468;22;20006;-92
2021/12/30 05:02:29;;;;;;;39.42;24.90;;;;;;;11.63;100.00;101004.72;6251358;22;20343;-92
2021/12/30 05:04:56;;;;;;;38.17;25.63;;;;;;;11.56;100.00;100983.03;6251331;22;20500;-92
2021/12/30 05:07:24;;;;;;;37.10;24.55;;;;;;;11.89;100.00;101033.63;6225666;22;20394;-92
2021/12/30 05:09:51;;;;;;;35.78;24.17;;;;;;;11.93;100.00;101040.31;6250922;22;20308;-91
2021/12/30 05:12:21;;;;;;;37.40;25.25;;;;;;;11.89;100.00;101047.22;6251658;22;20342;-92
2021/12/30 05:14:48;;;;;;;36.47;22.80;;;;;;;11.89;100.00;101037.16;6201266;22;20015;-92
2021/12/30 05:17:15;;;;;;;32.22;21.85;;;;;;;12.09;100.00;101091.47;6226122;22;20098;-92
2021/12/30 05:19:44;;;;;;;26.63;18.30;;;;;;;11.94;100.00;101050.13;6201445;22;20007;-92
2021/12/30 05:22:11;;;;;;;27.55;19.13;;;;;;;11.98;100.00;101064.97;6226078;22;20126;-92
2021/12/30 05:24:41;;;;;;;23.38;16.65;;;;;;;11.63;100.00;101002.81;6226121;22;20007;-92
2021/12/30 05:27:09;;;;;;;23.45;16.05;;;;;;;12.01;100.00;101067.25;6251354;22;20162;-92
2021/12/30 05:29:36;;;;;;;21.70;15.45;;;;;;;12.16;100.00;101098.75;6226679;22;20004;-92
2021/12/30 05:32:02;;;;;;;18.55;13.75;;;;;;;12.03;100.00;101067.03;6226655;22;20409;-92
2021/12/30 05:34:29;;;;;;;16.88;13.68;;;;;;;11.98;100.00;101075.84;6251185;22;20016;-92
2021/12/30 05:36:57;;;;;;;17.55;14.05;;;;;;;11.74;100.00;101036.66;6226114;22;20019;-92
2021/12/30 05:39:26;;;;;;;15.10;13.20;;;;;;;12.20;100.00;101113.56;6252140;22;20000;-92
2021/12/30 05:41:54;;;;;;;15.02;13.43;;;;;;;12.08;100.00;101078.09;6226226;22;20019;-92
2021/12/30 05:44:25;;;;;;;13.43;12.02;;;;;;;11.75;100.00;101038.28;6201088;22;20358;-92
2021/12/30 05:46:53;;;;;;;12.40;11.10;;;;;;;12.28;100.00;101135.91;6226947;22;20346;-92
2021/12/30 05:49:19;;;;;;;14.85;11.77;;;;;;;12.26;100.00;101139.91;6226062;22;20057;-91
2021/12/30 05:51:52;;;;;;;12.68;11.15;;;;;;;11.98;100.00;101077.75;6225520;22;20015;-91
2021/12/30 05:54:18;;;;;;;12.38;11.07;;;;;;;11.81;100.00;101058.34;6251014;22;20065;-90
2021/12/30 05:56:44;;;;;;;14.32;12.52;;;;;;;12.28;100.00;101135.06;6250954;22;20102;-90
2021/12/30 05:59:10;;;;;;;15.05;13.23;;;;;;;12.27;100.00;101133.41;6206149;22;20010;-90
2021/12/30 06:01:41;;;;;;;17.00;13.40;;;;;;;12.26;100.00;101156.22;6213577;22;20008;-92
2021/12/30 06:04:08;;;;;;;16.70;14.87;;;;;;;12.10;100.00;101084.94;6205015;22;20019;-92
2021/12/30 06:06:41;;;;;;;18.92;15.77;;;;;;;11.77;100.00;101044.38;6251010;22;20596;-92
2021/12/30 06:09:08;;;;;;;19.60;16.40;;;;;;;12.27;100.00;101104.31;6226923;22;20323;-92
2021/12/30 06:11:34;;;;;;;18.63;16.63;;;;;;;11.79;100.00;101036.81;6201317;22;20015;-91
2021/12/30 06:14:01;;;;;;;18.10;16.25;;;;;;;11.72;100.00;101033.31;6201548;22;20014;-91
2021/12/30 06:17:17;;;;;;;;;;;;;;;;;;;;;
2021/12/30 06:19:53;;;;;;;16.58;14.40;;;;;;;11.73;100.00;101046.66;6253520;22;20012;-96
2021/12/30 06:25:49;;;;;;;15.27;12.30;;;;;;;12.07;100.00;101107.16;6278318;22;20121;-93
2021/12/30 06:50:30;;;;;;;;;;;;;;;;;;;;;
2021/12/30 07:58:06;;;;;;;12.57;8.23;;;;;;;12.55;100.00;101224.69;6243430;23;20031;-95
2021/12/30 08:47:48;;;;;;;7.93;4.60;;;;;;;12.34;100.00;101209.53;6245104;22;20047;-92
2021/12/30 08:50:24;;;;;;;8.95;5.05;;;;;;;12.71;100.00;101265.00;6194420;23;20030;-89
2021/12/30 08:52:59;;;;;;;5.90;4.70;;;;;;;12.29;100.00;101185.69;6250786;22;20342;-89
2021/12/30 08:55:30;;;;;;;9.15;4.60;;;;;;;12.79;100.00;101272.06;6260356;22;20015;-88
2021/12/30 08:57:56;;;;;;;7.82;4.40;;;;;;;12.64;100.00;101269.66;6202366;23;20444;-89
2021/12/30 09:00:24;;;;;;;6.93;4.65;;;;;;;12.44;100.00;101229.75;6243787;23;20142;-89
2021/12/30 09:02:52;;;;;;;10.57;4.53;;;;;;;12.32;100.00;101233.41;6244254;23;20446;-89
2021/12/30 09:05:21;;;;;;;9.45;4.68;;;;;;;12.43;100.00;101213.66;6242906;23;20015;-89
2021/12/30 09:07:54;;;;;;;8.02;5.03;;;;;;;12.63;100.00;101246.19;6243463;23;20087;-91
2021/12/30 09:10:21;;;;;;;7.25;4.75;;;;;;;12.90;100.00;101281.41;6218755;23;20412;-90
2021/12/30 09:12:47;;;;;;;5.40;4.47;;;;;;;12.42;100.00;101193.78;6218635;23;20062;-89
2021/12/30 09:15:19;;;;;;;6.57;4.75;;;;;;;13.05;100.00;101281.09;6219245;23;20016;-91
2021/12/30 09:17:50;;;;;;;8.13;4.68;;;;;;;12.64;100.00;101212.50;6244569;23;20347;-91
2021/12/30 09:20:18;;;;;;;7.95;4.35;;;;;;;12.89;100.00;101256.06;6245702;23;20362;-90
2021/12/30 09:22:50;;;;;;;8.00;4.38;;;;;;;13.20;100.00;101303.41;6245664;23;20012;-91
2021/12/30 09:25:19;;;;;;;7.15;3.55;;;;;;;13.02;100.00;101255.16;6246542;23;20039;-92
2021/12/30 09:27:51;;;;;;;8.27;4.38;;;;;;;12.93;100.00;101237.41;6245712;23;20008;-91
2021/12/30 09:30:18;;;;;;;;;;;;;;;13.22;100.00;101279.50;6197203;23;20012;-91
2021/12/30 09:32:49;;;;;;;9.80;3.97;;;;;;;13.33;100.00;101297.84;6220383;23;19987;-91
2021/12/30 09:35:20;;;;;;;12.35;4.32;;;;;;;12.79;100.00;101204.00;6245703;23;20008;-91
2021/12/30 09:37:49;;;;;;;11.95;3.70;;;;;;;13.12;100.00;101270.97;6245615;23;20004;-90
2021/12/30 09:40:16;;;;;;;8.05;3.58;;;;;;;13.28;100.00;101292.22;6219508;23;20489;-90
2021/12/30 09:42:49;;;;;;;8.68;3.80;;;;;;;12.81;100.00;101237.28;6245649;23;20016;-91
2021/12/30 09:45:19;;;;;;;7.13;3.60;;;;;;;13.40;100.00;101322.34;6245856;23;20028;-91
2021/12/30 09:51:09;;;;;;;10.15;3.85;;;;;;;13.09;100.00;101276.88;6247392;23;20335;-92
2021/12/30 09:53:35;;;;;;;10.93;3.50;;;;;;;13.24;100.00;101292.88;6209436;23;20343;-91
2021/12/30 09:56:01;;;;;;;11.63;4.03;;;;;;;13.01;100.00;101268.97;6219676;23;20026;-90
2021/12/30 09:58:29;;;;;;;12.77;3.92;;;;;;;13.18;100.00;101294.59;6245016;23;20005;-91
2021/12/30 10:00:59;;;;;;;14.70;4.13;;;;;;;13.27;100.00;101300.63;6245153;23;20407;-90
2021/12/30 10:03:28;;;;;;;11.70;3.65;;;;;;;12.82;100.00;101234.31;6245209;23;20042;-91
2021/12/30 10:06:27;;;;;;;11.18;3.63;;;;;;;12.84;99.02;101247.72;6245001;23;20004;-89
2021/12/30 10:08:56;;;;;;;11.40;3.92;;;;;;;12.80;99.90;101243.81;6205475;23;20012;-90
2021/12/30 10:15:42;;;;;;;12.82;3.70;;;;;;;12.79;99.86;101234.78;6219580;23;20074;-92
2021/12/30 10:18:14;;;;;;;11.05;3.50;;;;;;;12.80;98.72;101236.44;6203969;23;20034;-93
2021/12/30 10:21:24;;;;;;;13.10;3.47;;;;;;;12.85;99.21;101216.72;6246402;23;20373;-93
2021/12/30 11:06:40;;;;;;;;;;;;;;;;;;;;;
2021/12/30 11:10:18;;;;;;;14.77;3.50;;;;;;;13.71;95.98;101330.69;6294949;22;20524;-95
2021/12/30 11:13:35;;;;;;;14.77;3.58;;;;;;;13.13;94.61;101234.53;6259911;22;20011;-96
2021/12/30 11:16:12;;;;;;;10.57;3.28;;;;;;;13.79;94.86;101344.88;6236617;23;20012;-95
2021/12/30 11:19:49;;;;;;;13.40;3.67;;;;;;;13.88;94.71;101330.91;6219444;23;20439;-95
2021/12/30 11:22:35;;;;;;;12.70;3.70;;;;;;;13.44;93.95;101221.91;6236737;23;20000;-94
2021/12/30 11:25:04;;;;;;;14.10;3.65;;;;;;;13.59;92.53;101230.53;6211221;23;20082;-94
2021/12/30 11:27:32;;;;;;;13.98;3.90;;;;;;;13.97;92.48;101292.22;6218259;23;20012;-93
2021/12/30 11:30:12;;;;;;;9.00;3.08;;;;;;;13.72;92.19;101235.00;6218838;23;20019;-94
2021/12/30 11:32:45;;;;;;;11.45;2.95;;;;;;;13.76;91.48;101236.22;6218595;23;20070;-94
2021/12/30 11:35:19;;;;;;;12.90;2.90;;;;;;;14.39;91.50;101316.06;6194433;23;20012;-93
2021/12/30 11:37:56;;;;;;;11.73;3.15;;;;;;;14.23;90.48;101287.50;6219489;23;20344;-95
2021/12/30 11:40:25;;;;;;;10.23;3.13;;;;;;;14.01;90.09;101240.75;6219051;23;20058;-92
2021/12/30 11:42:56;;;;;;;15.93;3.30;;;;;;;14.44;88.77;101288.91;6217296;23;20485;-90
2021/12/30 11:45:51;;;;;;;9.38;3.03;;;;;;;14.27;89.97;101268.78;6226365;22;20010;-90
2021/12/30 11:48:29;;;;;;;9.75;2.78;;;;;;;14.96;88.08;101323.09;6247324;22;20007;-90
2021/12/30 11:51:22;;;;;;;12.55;2.70;;;;;;;15.55;84.55;101324.03;6279230;22;20007;-90
2021/12/30 11:53:50;;;;;;;9.60;2.55;;;;;;;16.58;80.33;101315.31;6280324;22;20003;-90
2021/12/30 11:56:25;;;;;;;10.05;2.65;;;;;;;16.95;77.93;101271.09;6281637;22;20038;-91
2021/12/30 11:58:59;;;;;;;15.40;2.70;;;;;;;17.01;75.56;101248.16;6279456;22;20379;-90
2021/12/30 12:01:24;;;;;;;8.73;2.60;;;;;;;18.28;72.97;101319.97;6279639;22;20426;-90
2021/12/30 12:03:53;;;;;;;8.73;2.33;;;;;;;19.50;68.40;101314.03;6279178;22;20010;-90
2021/12/30 12:06:34;;;;;;;9.55;2.20;;;;;;;19.23;68.76;101323.19;6306172;22;20075;-90
2021/12/30 12:09:12;;;;;;;7.22;2.30;;;;;;;18.67;71.82;101315.19;6248400;22;20085;-90
2021/12/30 12:12:01;;;;;;;8.68;2.40;;;;;;;19.00;69.28;101340.88;6248481;22;20034;-90
2021/12/30 12:14:50;;;;;;;10.13;2.40;;;;;;;18.69;69.33;101244.34;6248012;22;20008;-90
2021/12/30 12:17:38;;;;;;;7.32;2.45;;;;;;;19.46;68.23;101246.91;6247755;22;20014;-90
2021/12/30 12:20:19;;;;;;;8.05;2.38;;;;;;;18.80;67.84;101263.66;6275454;22;19999;-89
2021/12/30 12:22:45;;;;;;;6.40;2.35;;;;;;;17.44;68.96;101251.28;6248083;22;20405;-88
2021/12/30 12:25:26;;;;;;;8.45;2.45;;;;;;;16.86;73.08;101299.94;6248099;22;20035;-88
2021/12/30 12:27:58;;;;;;;6.88;2.20;;;;;;;16.47;75.52;101330.72;6248667;22;19999;-88
2021/12/30 12:30:30;;;;;;;8.70;2.20;;;;;;;15.73;76.21;101265.63;6275398;22;20026;-88
2021/12/30 12:32:57;;;;;;;8.43;2.60;;;;;;;15.64;78.73;101315.47;6275373;22;20029;-88
2021/12/30 12:35:27;;;;;;;8.95;2.28;;;;;;;15.79;79.35;101351.41;6247860;22;20446;-89
2021/12/30 12:37:59;;;;;;;7.43;2.78;;;;;;;15.44;79.03;101317.50;6248030;22;20407;-88
2021/12/30 12:40:48;;;;;;;;;;;;;;;;;;;;;
2021/12/30 12:43:38;;;;;;;9.75;2.47;;;;;;;15.64;78.07;101302.63;6275544;22;20082;-90
2021/12/30 12:46:04;;;;;;;9.02;2.42;;;;;;;15.47;79.07;101298.94;6233895;22;20443;-91
2021/12/30 12:48:32;;;;;;;8.50;2.60;;;;;;;15.65;80.02;101356.28;6247934;22;20035;-91
2021/12/30 12:51:01;;;;;;;8.63;2.50;;;;;;;15.48;79.51;101328.78;6274682;22;20355;-88
2021/12/30 12:53:47;;;;;;;7.28;2.67;;;;;;;15.34;80.63;101330.91;6276028;22;20380;-88
2021/12/30 12:56:20;;;;;;;8.15;2.50;;;;;;;14.87;81.31;101268.78;6276093;22;20049;-88
2021/12/30 12:58:51;;;;;;;11.88;2.90;;;;;;;14.82;81.48;101265.94;6250182;22;20004;-88
2021/12/30 13:01:23;;;;;;;10.32;2.90;;;;;;;14.65;81.49;101268.50;6250290;22;20011;-90
2021/12/30 13:03:56;;;;;;;7.45;2.47;;;;;;;15.04;81.00;101320.88;6250225;22;20057;-90
2021/12/30 13:06:30;;;;;;;6.25;2.40;;;;;;;14.88;82.01;101314.19;6226320;22;20019;-90
2021/12/30 13:09:02;;;;;;;7.47;2.25;;;;;;;14.49;81.60;101272.66;6279883;22;20046;-90
2021/12/30 13:11:32;;;;;;;8.40;2.50;;;;;;;14.72;83.22;101348.44;6281493;22;19999;-90
2021/12/30 13:14:02;;;;;;;7.13;2.38;;;;;;;14.95;82.75;101381.53;6281256;22;20086;-90
2021/12/30 13:16:36;;;;;;;7.60;2.30;;;;;;;14.31;83.69;101286.38;6308146;22;20098;-90
2021/12/30 13:19:36;;;;;;;9.15;3.00;;;;;;;14.26;83.60;101288.94;6280453;22;20459;-90
2021/12/30 13:22:26;;;;;;;8.57;2.67;;;;;;;14.70;84.17;101375.16;6262775;22;20006;-89
2021/12/30 13:25:07;;;;;;;9.80;2.50;;;;;;;14.39;84.20;101318.78;6307236;22;20007;-89
2021/12/30 13:27:44;;;;;;;6.05;2.33;;;;;;;14.68;83.76;101384.63;6254663;22;20015;-89
2021/12/30 13:30:19;;;;;;;7.32;2.70;;;;;;;14.06;84.36;101295.47;6280816;22;20014;-89
2021/12/30 13:32:54;;;;;;;6.35;2.88;;;;;;;14.41;84.08;101354.03;6280714;22;20008;-88
2021/12/30 13:35:50;;;;;;;8.77;3.10;;;;;;;14.60;84.00;101369.38;6280311;22;20007;-88
2021/12/30 13:38:39;;;;;;;7.03;3.28;;;;;;;14.33;84.41;101319.72;6267836;22;20098;-89
2021/12/30 13:41:12;;;;;;;7.70;2.70;;;;;;;14.20;83.31;101305.19;6280561;22;20120;-89
2021/12/30 13:43:53;;;;;;;;;;;;;;;;;;;;;
2021/12/30 13:46:24;;;;;;;9.18;2.80;;;;;;;14.07;84.34;101297.16;6307692;22;20425;-89
2021/12/30 13:48:57;;;;;;;7.70;2.50;;;;;;;14.36;84.66;101339.22;6279793;22;20003;-92
2021/12/30 13:51:28;;;;;;;8.23;2.95;;;;;;;14.03;84.58;101285.03;6280753;22;20434;-90
2021/12/30 13:54:10;;;;;;;7.35;2.58;;;;;;;14.21;85.38;101334.13;6281880;22;20014;-91
2021/12/30 13:56:49;;;;;;;6.10;2.63;;;;;;;14.04;85.44;101306.63;6280878;22;20378;-91
2021/12/30 13:59:54;;;;;;;8.45;2.65;;;;;;;14.47;86.81;101385.91;6281771;22;20011;-91
2021/12/30 14:02:21;;;;;;;8.55;2.90;;;;;;;14.22;85.84;101362.25;6256921;22;20017;-91
2021/12/30 14:08:07;;;;;;;7.18;2.75;;;;;;;14.00;86.20;101332.69;6281922;22;20316;-92
2021/12/30 14:10:56;;;;;;;9.40;2.50;;;;;;;14.38;87.22;101385.38;6281503;22;20003;-91
2021/12/30 14:13:46;;;;;;;8.88;2.53;;;;;;;13.91;86.56;101303.22;6281169;22;20054;-92
2021/12/30 14:16:23;;;;;;;7.72;2.63;;;;;;;13.87;86.49;101297.38;6281038;22;20010;-91
2021/12/30 14:19:16;;;;;;;7.90;2.50;;;;;;;14.18;86.74;101344.66;6280710;22;20007;-91
2021/12/30 14:21:48;;;;;;;6.05;2.40;;;;;;;13.78;86.66;101287.81;6281141;22;20006;-91
2021/12/30 14:24:22;;;;;;;8.40;2.30;;;;;;;14.30;86.63;101377.50;6281313;22;20019;-92
2021/12/30 14:29:49;;;;;;;6.03;2.10;;;;;;;13.95;87.16;101356.22;6307483;22;20033;-92
2021/12/30 14:32:16;;;;;;;7.10;2.38;;;;;;;13.91;87.27;101342.22;6281542;22;20045;-91
2021/12/30 14:34:44;;;;;;;9.43;2.80;;;;;;;13.67;87.64;101319.38;6281432;22;20003;-91
2021/12/30 14:37:12;;;;;;;7.15;2.60;;;;;;;14.18;88.06;101410.16;6280671;22;20003;-91
2021/12/30 14:39:45;;;;;;;5.90;2.20;;;;;;;14.03;87.89;101377.78;6280992;22;19999;-91
2021/12/30 14:42:16;;;;;;;7.93;2.58;;;;;;;14.16;88.13;101415.84;6281135;22;20058;-91
2021/12/30 14:44:49;;;;;;;4.33;1.90;;;;;;;13.72;88.42;101330.44;6281159;22;20007;-91
2021/12/30 14:47:30;;;;;;;7.50;2.65;;;;;;;13.62;88.85;101330.94;6280877;22;20269;-91
2021/12/30 14:50:20;;;;;;;7.22;2.20;;;;;;;13.77;88.76;101351.59;6282938;22;20017;-92
2021/12/30 14:53:19;;;;;;;5.45;1.85;;;;;;;13.67;88.43;101349.38;6288207;22;20006;-92
2021/12/30 14:55:47;;;;;;;10.10;2.60;;;;;;;13.97;88.73;101401.34;6299607;22;20003;-93
2021/12/30 14:58:14;;;;;;;6.30;2.15;;;;;;;13.65;88.78;101333.22;6282052;22;20003;-92
2021/12/30 15:00:57;;;;;;;5.65;2.33;;;;;;;13.67;89.28;101335.72;6255113;22;20014;-93